Time;durP1;ratioP1;P1;durP2;ratioP2;P2;SDS_P1;SDS_P2;PMS_P1;PMS_P2;Temp;Humidity;BMP_temperature;BMP_pressure;BME280_temperature;BME280_humidity;BME280_pressure;Samples;Min_cycle;Max_cycle;Signal;HPM_P1;HPM_P2
2023/08/26 00:00:19;;;;;;;4.25;1.73;;;20.90;66.00;22.70;100768.00;;;;5033564;28;20218;-84
2023/08/26 00:02:46;;;;;;;4.25;2.47;;;20.90;66.00;22.60;100766.00;;;;5048568;28;20222;-84
2023/08/26 00:05:13;;;;;;;3.03;1.60;;;20.90;66.00;22.60;100768.00;;;;5046958;28;20207;-85
2023/08/26 00:07:42;;;;;;;2.20;1.70;;;20.80;66.10;22.60;100762.00;;;;5034398;28;20223;-85
2023/08/26 00:10:10;;;;;;;4.40;1.92;;;20.90;66.20;22.60;100756.00;;;;5046896;28;20199;-84
2023/08/26 00:12:37;;;;;;;2.88;1.70;;;20.80;66.20;22.60;100756.00;;;;5047325;28;20187;-84
2023/08/26 00:15:05;;;;;;;2.15;1.40;;;20.90;66.30;22.60;100753.00;;;;5047546;28;20594;-85
2023/08/26 00:17:33;;;;;;;3.10;1.50;;;20.80;66.30;22.60;100751.00;;;;5048689;28;20199;-85
2023/08/26 00:20:00;;;;;;;2.08;1.27;;;20.80;67.00;22.60;100746.00;;;;5048425;28;20548;-85
2023/08/26 00:22:27;;;;;;;5.03;2.00;;;20.80;66.30;22.60;100747.00;;;;5047643;28;20196;-85
2023/08/26 00:24:56;;;;;;;2.17;1.67;;;20.80;66.30;22.60;100746.00;;;;5040980;28;20195;-84
2023/08/26 00:27:23;;;;;;;2.55;1.45;;;20.80;66.30;22.60;100746.00;;;;5048809;28;20191;-85
2023/08/26 00:29:49;;;;;;;2.38;1.48;;;20.80;66.30;22.60;100747.00;;;;5048437;28;20765;-86
2023/08/26 00:32:16;;;;;;;1.92;1.73;;;20.80;66.30;22.60;100746.00;;;;5047882;28;20210;-84
2023/08/26 00:34:44;;;;;;;3.08;1.75;;;20.80;66.50;22.60;100741.00;;;;5039437;28;20262;-85
2023/08/26 00:37:12;;;;;;;3.30;1.92;;;20.80;66.50;22.60;100735.00;;;;5046962;28;20230;-85
2023/08/26 00:39:39;;;;;;;1.80;1.55;;;20.80;66.60;22.60;100737.00;;;;5048248;28;20203;-85
2023/08/26 00:42:08;;;;;;;2.53;1.85;;;20.80;66.60;22.50;100739.00;;;;5033229;28;20203;-85
2023/08/26 00:44:35;;;;;;;2.30;2.10;;;20.80;66.60;22.60;100742.00;;;;5034595;28;21043;-85
2023/08/26 00:47:03;;;;;;;1.85;1.70;;;20.80;66.60;22.60;100736.00;;;;5048041;28;20199;-84
2023/08/26 00:49:30;;;;;;;2.65;1.88;;;20.80;66.70;22.60;100736.00;;;;5048156;28;20202;-85
2023/08/26 00:51:57;;;;;;;2.05;1.83;;;20.80;66.60;22.60;100727.00;;;;5046807;28;20207;-84
2023/08/26 00:54:27;;;;;;;2.42;2.22;;;20.80;66.60;22.50;100739.00;;;;5047771;28;20693;-85
2023/08/26 00:56:55;;;;;;;2.17;1.55;;;20.80;66.70;22.50;100726.00;;;;5045555;28;20618;-86
2023/08/26 00:59:24;;;;;;;2.88;1.80;;;20.80;66.60;22.50;100727.00;;;;5027787;28;20200;-84
2023/08/26 01:01:52;;;;;;;2.70;2.05;;;20.80;66.60;22.50;100727.00;;;;5041577;28;20207;-85
2023/08/26 01:04:19;;;;;;;2.58;2.00;;;20.80;66.60;22.50;100736.00;;;;5047279;28;20202;-85
2023/08/26 01:06:47;;;;;;;2.70;2.17;;;20.80;66.50;22.50;100733.00;;;;5045772;28;20200;-85
2023/08/26 01:09:14;;;;;;;3.42;2.03;;;20.80;66.60;22.50;100733.00;;;;5039026;28;20206;-85
2023/08/26 01:11:50;;;;;;;2.58;2.08;;;20.80;66.60;22.50;100733.00;;;;5047704;28;20194;-85
2023/08/26 01:14:28;;;;;;;2.80;2.30;;;20.80;66.70;22.50;100735.00;;;;5032148;28;20231;-84
2023/08/26 01:16:58;;;;;;;3.30;1.60;;;20.80;66.70;22.50;100738.00;;;;5044434;28;20223;-85
2023/08/26 01:19:32;;;;;;;5.07;1.90;;;20.80;66.70;22.50;100735.00;;;;5048963;28;20208;-84
2023/08/26 01:22:06;;;;;;;2.80;2.17;;;20.80;66.70;22.50;100732.00;;;;5045447;28;20190;-84
2023/08/26 01:24:36;;;;;;;2.30;2.00;;;20.80;66.60;22.50;100723.00;;;;5049826;28;20192;-85
2023/08/26 01:27:03;;;;;;;3.40;2.47;;;20.80;66.60;22.60;100736.00;;;;5046864;28;20195;-85
2023/08/26 01:29:30;;;;;;;5.22;2.40;;;20.80;66.60;22.50;100729.00;;;;5038438;28;20594;-83
2023/08/26 01:32:16;;;;;;;4.72;2.67;;;20.80;66.60;22.40;100721.00;;;;5046351;28;20206;-85
2023/08/26 01:34:50;;;;;;;5.03;2.33;;;20.80;66.60;22.50;100729.00;;;;5049979;28;20232;-84
2023/08/26 01:37:20;;;;;;;2.40;2.10;;;20.80;66.50;22.50;100714.00;;;;5044653;28;20223;-85
2023/08/26 01:39:52;;;;;;;3.17;2.28;;;20.80;66.60;22.50;100731.00;;;;5047329;28;20204;-85
2023/08/26 01:42:23;;;;;;;3.50;3.08;;;20.80;66.50;22.50;100736.00;;;;5046704;28;20210;-85
2023/08/26 01:44:51;;;;;;;3.47;2.53;;;20.80;66.50;22.50;100732.00;;;;5048547;28;20602;-85
2023/08/26 01:47:19;;;;;;;4.22;2.85;;;20.80;66.60;22.50;100731.00;;;;5041832;28;20207;-84
2023/08/26 01:49:47;;;;;;;6.15;2.63;;;20.80;66.60;22.50;100723.00;;;;5039265;28;20199;-85
2023/08/26 01:52:14;;;;;;;5.45;2.97;;;20.80;66.70;22.60;100731.00;;;;5049778;28;20206;-84
2023/08/26 01:54:41;;;;;;;4.53;3.38;;;20.80;66.80;22.60;100731.00;;;;5052013;28;20200;-84
2023/08/26 01:57:11;;;;;;;6.47;2.92;;;20.80;66.70;22.50;100731.00;;;;5049336;28;20586;-85
2023/08/26 01:59:38;;;;;;;5.88;3.08;;;20.80;66.60;22.50;100734.00;;;;5051612;28;20199;-85
2023/08/26 02:02:11;;;;;;;6.53;3.20;;;20.90;66.60;22.50;100737.00;;;;5051736;28;20199;-84
2023/08/26 02:04:39;;;;;;;5.70;3.30;;;20.80;66.60;22.50;100730.00;;;;5051919;28;20887;-85
2023/08/26 02:07:06;;;;;;;10.00;2.83;;;20.90;66.60;22.60;100734.00;;;;5048055;28;20204;-84
2023/08/26 02:09:33;;;;;;;5.13;2.92;;;20.80;66.50;22.60;100735.00;;;;5052808;28;20195;-85
2023/08/26 02:12:00;;;;;;;3.42;2.30;;;20.90;66.50;22.50;100733.00;;;;5050650;28;20609;-85
2023/08/26 02:14:29;;;;;;;5.00;2.92;;;20.90;66.30;22.50;100734.00;;;;5053069;28;20231;-85
2023/08/26 02:16:57;;;;;;;4.13;3.05;;;20.90;66.20;22.50;100739.00;;;;5048364;28;20234;-85
2023/08/26 02:19:24;;;;;;;2.90;2.13;;;20.80;66.10;22.50;100739.00;;;;5047983;28;20206;-85
2023/08/26 02:21:53;;;;;;;7.78;2.90;;;20.80;65.70;22.50;100743.00;;;;5050276;28;20195;-85
2023/08/26 02:24:20;;;;;;;3.28;2.10;;;20.80;65.60;22.50;100737.00;;;;5050898;28;20203;-85
2023/08/26 02:26:47;;;;;;;2.90;2.03;;;20.80;65.40;22.40;100740.00;;;;5033605;28;20665;-85
2023/08/26 02:29:14;;;;;;;2.30;1.75;;;20.80;65.40;22.40;100741.00;;;;5045423;28;20309;-84
2023/08/26 02:31:42;;;;;;;8.05;2.80;;;20.80;65.20;22.30;100739.00;;;;5049902;28;20200;-85
2023/08/26 02:34:09;;;;;;;4.32;2.00;;;20.70;65.00;22.30;100745.00;;;;5049544;28;20207;-84
2023/08/26 02:36:36;;;;;;;4.63;2.22;;;20.70;65.10;22.30;100740.00;;;;5048603;28;20226;-84
2023/08/26 02:39:04;;;;;;;3.47;2.13;;;20.70;64.80;22.30;100737.00;;;;5048950;28;20210;-84
2023/08/26 02:41:30;;;;;;;4.05;2.72;;;20.70;64.70;22.20;100749.00;;;;5030832;28;20204;-85
2023/08/26 02:43:57;;;;;;;5.05;2.42;;;20.60;64.30;22.20;100741.00;;;;5045515;28;20215;-84
2023/08/26 02:46:24;;;;;;;5.43;2.67;;;20.60;64.30;22.10;100738.00;;;;5049509;28;20211;-84
2023/08/26 02:48:53;;;;;;;4.78;2.30;;;20.60;64.20;22.10;100720.00;;;;5050372;28;20214;-84
2023/08/26 02:51:21;;;;;;;4.45;2.30;;;20.50;64.10;22.00;100734.00;;;;5049892;28;20196;-85
2023/08/26 02:53:49;;;;;;;5.10;2.30;;;20.50;64.20;22.00;100742.00;;;;5050965;28;20206;-86
2023/08/26 02:56:16;;;;;;;4.20;2.03;;;20.40;64.10;22.00;100736.00;;;;5039964;28;20223;-84
2023/08/26 02:58:43;;;;;;;4.65;2.30;;;20.40;64.20;22.00;100729.00;;;;5050578;28;20222;-83
2023/08/26 03:01:10;;;;;;;4.72;2.03;;;20.30;64.10;21.90;100732.00;;;;5049339;28;20587;-84
2023/08/26 03:03:37;;;;;;;4.07;2.08;;;20.30;64.10;21.90;100739.00;;;;5049759;28;20282;-83
2023/08/26 03:06:05;;;;;;;4.03;2.15;;;20.30;64.10;21.80;100729.00;;;;5049466;28;20208;-83
2023/08/26 03:08:32;;;;;;;5.30;2.10;;;20.30;64.10;21.80;100734.00;;;;5049438;28;20195;-84
2023/08/26 03:11:02;;;;;;;2.78;1.95;;;20.20;64.00;21.80;100741.00;;;;5049190;28;20195;-83
2023/08/26 03:13:30;;;;;;;4.25;2.20;;;20.20;64.20;21.80;100738.00;;;;5048043;28;20192;-84
2023/08/26 03:15:57;;;;;;;6.53;2.65;;;20.10;64.20;21.70;100739.00;;;;5045573;28;20659;-84
2023/08/26 03:18:25;;;;;;;4.07;2.30;;;20.10;64.20;21.70;100737.00;;;;5049861;28;20203;-84
2023/08/26 03:20:51;;;;;;;3.33;2.10;;;20.10;64.20;21.70;100740.00;;;;5048082;28;20203;-84
2023/08/26 03:23:20;;;;;;;3.25;2.10;;;20.10;64.20;21.70;100746.00;;;;5037065;28;20311;-85
2023/08/26 03:25:47;;;;;;;5.13;2.22;;;20.00;64.40;21.60;100746.00;;;;5047127;28;20279;-84
2023/08/26 03:28:14;;;;;;;3.95;2.30;;;20.00;64.40;21.60;100741.00;;;;5049339;28;20199;-84
2023/08/26 03:30:41;;;;;;;2.92;2.05;;;19.90;64.30;21.60;100741.00;;;;5046300;28;20592;-84
2023/08/26 03:33:11;;;;;;;11.00;2.45;;;19.90;64.20;21.50;100740.00;;;;5042468;28;20204;-84
2023/08/26 03:35:39;;;;;;;5.72;2.28;;;19.90;64.20;21.50;100738.00;;;;5042078;28;20196;-83
2023/08/26 03:38:06;;;;;;;5.20;2.58;;;19.90;64.20;21.50;100748.00;;;;5029266;28;20220;-83
2023/08/26 03:40:39;;;;;;;4.32;2.40;;;19.90;64.40;21.40;100742.00;;;;5045443;28;20199;-84
2023/08/26 03:43:07;;;;;;;6.25;2.67;;;19.80;64.30;21.40;100743.00;;;;5047574;28;20199;-83
2023/08/26 03:45:34;;;;;;;4.43;2.55;;;19.80;64.20;21.40;100746.00;;;;5048624;28;20227;-84
2023/08/26 03:48:01;;;;;;;2.85;2.20;;;19.80;64.20;21.40;100736.00;;;;5048722;28;20230;-84
2023/08/26 03:50:28;;;;;;;4.50;2.75;;;19.70;64.10;21.30;100746.00;;;;5049715;28;20249;-84
2023/08/26 03:52:55;;;;;;;4.50;2.20;;;19.70;64.00;21.30;100742.00;;;;5047272;28;20192;-83
2023/08/26 03:55:22;;;;;;;2.67;2.20;;;19.70;64.10;21.30;100743.00;;;;5048965;28;20594;-83
2023/08/26 03:57:50;;;;;;;2.95;1.92;;;19.60;64.10;21.30;100742.00;;;;5049231;28;20227;-84
2023/08/26 04:00:17;;;;;;;4.95;2.83;;;19.60;64.10;21.30;100743.00;;;;5047331;28;20291;-84
2023/08/26 04:02:45;;;;;;;7.35;2.63;;;19.60;64.10;21.20;100745.00;;;;5045012;28;20191;-84
2023/08/26 04:05:14;;;;;;;4.07;2.25;;;19.60;64.10;21.20;100743.00;;;;5045047;28;20196;-84
2023/08/26 04:07:41;;;;;;;4.22;2.22;;;19.50;64.00;21.20;100739.00;;;;5048709;28;20578;-84
2023/08/26 04:10:10;;;;;;;4.22;2.78;;;19.50;64.00;21.10;100738.00;;;;5048859;28;20373;-84
2023/08/26 04:12:37;;;;;;;3.70;2.17;;;19.50;64.10;21.10;100743.00;;;;5047533;28;20234;-84
2023/08/26 04:15:07;;;;;;;2.78;2.28;;;19.50;64.20;21.10;100739.00;;;;5048369;28;20222;-84
2023/08/26 04:17:35;;;;;;;4.53;2.28;;;19.40;64.10;21.10;100743.00;;;;5048750;28;20219;-84
2023/08/26 04:20:02;;;;;;;3.00;2.28;;;19.40;64.10;21.10;100754.00;;;;5049311;28;20199;-83
2023/08/26 04:22:29;;;;;;;2.40;2.20;;;19.40;64.80;21.00;100754.00;;;;5037839;28;20213;-82
2023/08/26 04:24:58;;;;;;;4.57;2.20;;;19.30;64.10;21.00;100757.00;;;;5047711;28;20221;-83
2023/08/26 04:27:27;;;;;;;5.35;3.13;;;19.40;64.40;21.00;100757.00;;;;5043567;28;20563;-83
2023/08/26 04:29:54;;;;;;;5.28;2.67;;;19.30;64.40;21.00;100756.00;;;;5048689;28;20451;-84
2023/08/26 04:32:22;;;;;;;5.20;3.03;;;19.30;64.50;21.00;100760.00;;;;5046673;28;20200;-83
2023/08/26 04:34:49;;;;;;;2.63;2.38;;;19.30;64.60;21.00;100771.00;;;;5047962;28;20199;-83
2023/08/26 04:37:16;;;;;;;4.20;3.08;;;19.30;64.70;21.00;100773.00;;;;5042686;28;20314;-84
2023/08/26 04:39:43;;;;;;;3.97;2.60;;;19.30;64.80;21.00;100765.00;;;;5048035;28;20304;-83
2023/08/26 04:42:10;;;;;;;7.47;2.65;;;19.30;64.70;21.00;100767.00;;;;5045236;28;20196;-84
2023/08/26 04:44:37;;;;;;;8.75;2.85;;;19.20;64.70;21.00;100759.00;;;;5047266;28;20198;-83
2023/08/26 04:47:05;;;;;;;3.47;2.42;;;19.20;64.70;20.90;100772.00;;;;5046120;28;20546;-83
2023/08/26 04:49:34;;;;;;;4.03;2.22;;;19.20;64.80;20.90;100776.00;;;;5046554;28;20207;-83
2023/08/26 04:52:00;;;;;;;5.32;2.58;;;19.20;64.80;20.90;100779.00;;;;5045300;28;20283;-83
2023/08/26 04:54:27;;;;;;;3.38;2.25;;;19.20;64.90;20.90;100787.00;;;;5046969;28;20586;-83
2023/08/26 04:56:54;;;;;;;2.88;2.17;;;19.20;65.00;20.90;100789.00;;;;5031679;28;20243;-83
2023/08/26 04:59:21;;;;;;;4.32;2.70;;;19.20;65.00;21.00;100792.00;;;;5037746;28;20622;-84
2023/08/26 05:01:49;;;;;;;7.32;3.25;;;19.20;65.00;20.90;100791.00;;;;5046066;28;20574;-85
2023/08/26 05:04:16;;;;;;;2.78;2.40;;;19.20;65.00;20.90;100795.00;;;;5042634;28;20210;-84
2023/08/26 05:06:45;;;;;;;4.13;2.53;;;19.20;65.00;20.90;100797.00;;;;5048173;28;20563;-85
2023/08/26 05:09:12;;;;;;;6.57;2.92;;;19.20;65.60;20.90;100802.00;;;;5046975;28;20223;-82
2023/08/26 05:11:39;;;;;;;4.07;2.45;;;19.20;64.80;20.90;100797.00;;;;5031732;28;20214;-83
2023/08/26 05:14:06;;;;;;;3.97;2.08;;;19.20;64.70;20.90;100800.00;;;;5039934;28;20338;-84
2023/08/26 05:16:34;;;;;;;3.05;2.28;;;19.20;64.70;20.80;100805.00;;;;5046129;28;20200;-83
2023/08/26 05:19:01;;;;;;;4.82;2.17;;;19.20;64.80;20.80;100810.00;;;;5046245;28;20195;-85
2023/08/26 05:21:30;;;;;;;3.05;2.70;;;19.20;64.80;20.80;100811.00;;;;5046569;28;20196;-82
2023/08/26 05:24:00;;;;;;;2.83;2.05;;;19.20;64.80;20.80;100817.00;;;;5042109;28;20196;-82
2023/08/26 05:26:27;;;;;;;2.63;2.13;;;19.10;64.80;20.80;100808.00;;;;5035135;28;20203;-84
2023/08/26 05:28:55;;;;;;;3.38;2.25;;;19.10;64.70;20.80;100818.00;;;;5051651;28;20202;-83
2023/08/26 05:31:24;;;;;;;2.40;2.05;;;19.10;64.70;20.80;100814.00;;;;5047456;28;20214;-84
2023/08/26 05:33:51;;;;;;;4.65;2.30;;;19.10;64.90;20.80;100820.00;;;;5051844;28;20253;-82
2023/08/26 05:36:19;;;;;;;5.53;2.10;;;19.10;64.90;20.80;100820.00;;;;5051773;28;20204;-84
2023/08/26 05:38:45;;;;;;;2.83;2.45;;;19.10;64.90;20.90;100822.00;;;;5052423;28;20769;-83
2023/08/26 05:41:14;;;;;;;4.20;2.10;;;19.10;65.00;20.80;100820.00;;;;5050171;28;20195;-82
2023/08/26 05:43:41;;;;;;;3.25;1.88;;;19.10;65.00;20.90;100822.00;;;;5047623;28;20215;-83
2023/08/26 05:46:09;;;;;;;3.60;2.05;;;19.20;65.00;20.90;100821.00;;;;5049031;28;20225;-85
2023/08/26 05:48:36;;;;;;;4.30;2.60;;;19.20;65.10;20.90;100825.00;;;;5040343;28;20200;-85
2023/08/26 05:51:03;;;;;;;5.35;2.25;;;19.20;65.00;20.90;100819.00;;;;5051084;28;20355;-85
2023/08/26 05:53:30;;;;;;;3.22;2.00;;;19.20;64.90;20.90;100828.00;;;;5051023;28;20192;-83
2023/08/26 05:55:58;;;;;;;3.70;2.20;;;19.20;64.80;20.90;100820.00;;;;5050905;28;20230;-83
2023/08/26 05:58:27;;;;;;;3.65;2.60;;;19.20;64.70;20.90;100822.00;;;;5045760;28;21000;-82
2023/08/26 06:00:57;;;;;;;2.88;2.10;;;19.20;64.70;20.90;100822.00;;;;5041156;28;20294;-86
2023/08/26 06:03:24;;;;;;;3.38;2.20;;;19.20;64.70;20.90;100819.00;;;;5042498;28;20262;-82
2023/08/26 06:05:52;;;;;;;4.93;2.20;;;19.30;64.80;21.00;100812.00;;;;5049850;28;20191;-82
2023/08/26 06:08:19;;;;;;;2.60;1.45;;;19.20;64.80;21.00;100814.00;;;;5050887;28;20754;-81
2023/08/26 06:10:46;;;;;;;2.92;2.00;;;19.30;65.00;21.00;100812.00;;;;5045999;28;20211;-82
2023/08/26 06:13:13;;;;;;;6.15;2.08;;;19.30;65.10;21.10;100809.00;;;;5041871;28;20212;-84
2023/08/26 06:15:42;;;;;;;4.18;1.63;;;19.30;65.00;21.10;100812.00;;;;5049567;28;20228;-84
2023/08/26 06:18:09;;;;;;;2.95;2.30;;;19.40;65.10;21.10;100824.00;;;;5045524;28;20243;-84
2023/08/26 06:20:36;;;;;;;3.40;1.67;;;19.40;65.00;21.20;100822.00;;;;5050636;28;20287;-82
2023/08/26 06:23:03;;;;;;;4.25;1.70;;;19.50;65.10;21.20;100817.00;;;;5054220;28;20192;-83
2023/08/26 06:25:30;;;;;;;2.88;2.33;;;19.50;65.10;21.30;100817.00;;;;5037386;28;20266;-84
2023/08/26 06:27:59;;;;;;;5.15;2.17;;;19.50;65.00;21.30;100819.00;;;;5031605;28;20195;-82
2023/08/26 06:30:26;;;;;;;4.03;1.92;;;19.50;64.90;21.30;100828.00;;;;5031685;28;20204;-83
2023/08/26 06:32:55;;;;;;;4.25;2.15;;;19.60;64.80;21.30;100828.00;;;;5039992;28;20735;-82
2023/08/26 06:35:26;;;;;;;4.47;2.60;;;19.60;64.70;21.30;100823.00;;;;5050199;28;20744;-82
2023/08/26 06:37:53;;;;;;;3.97;2.38;;;19.60;65.30;21.40;100818.00;;;;5050157;28;20235;-82
2023/08/26 06:40:20;;;;;;;4.68;1.80;;;19.60;64.60;21.40;100803.00;;;;5051225;28;20200;-82
2023/08/26 06:42:47;;;;;;;2.75;1.67;;;19.70;64.70;21.40;100823.00;;;;5050664;28;20211;-80
2023/08/26 06:45:14;;;;;;;4.22;2.10;;;19.70;64.90;21.50;100819.00;;;;5047798;28;20207;-82
2023/08/26 06:47:41;;;;;;;3.50;2.17;;;19.70;64.90;21.50;100812.00;;;;5049708;28;20577;-83
2023/08/26 06:50:12;;;;;;;4.40;1.90;;;19.80;64.90;21.50;100796.00;;;;5045548;28;20200;-82
2023/08/26 06:52:40;;;;;;;7.00;2.40;;;19.80;64.80;21.60;100795.00;;;;5037637;28;20215;-83
2023/08/26 06:55:08;;;;;;;2.35;1.70;;;19.90;65.00;21.70;100798.00;;;;5042645;28;20692;-82
2023/08/26 06:57:36;;;;;;;5.93;2.13;;;19.90;64.90;21.70;100796.00;;;;5029946;28;20228;-83
2023/08/26 07:00:05;;;;;;;3.88;1.92;;;19.90;64.70;21.70;100800.00;;;;5030125;28;20204;-83
2023/08/26 07:02:32;;;;;;;5.90;2.05;;;20.00;64.70;21.80;100798.00;;;;5040388;28;20203;-82
2023/08/26 07:04:59;;;;;;;4.97;2.30;;;20.00;64.70;21.80;100788.00;;;;5030318;28;20197;-83
2023/08/26 07:07:27;;;;;;;4.25;2.13;;;20.10;64.70;21.90;100778.00;;;;5030285;28;20650;-83
2023/08/26 07:09:54;;;;;;;3.42;1.70;;;20.10;65.00;21.90;100786.00;;;;5048238;28;20219;-83
2023/08/26 07:12:21;;;;;;;2.67;1.75;;;20.20;65.00;22.00;100782.00;;;;5049026;28;20199;-83
2023/08/26 07:14:48;;;;;;;2.00;1.80;;;20.30;64.90;22.10;100791.00;;;;5040779;28;20236;-84
2023/08/26 07:17:15;;;;;;;5.63;2.58;;;20.30;64.90;22.10;100795.00;;;;5049449;28;20329;-81
2023/08/26 07:19:42;;;;;;;4.00;1.80;;;20.40;64.80;22.20;100812.00;;;;5050855;28;20237;-81
2023/08/26 07:22:09;;;;;;;3.38;1.58;;;20.50;64.80;22.20;100816.00;;;;5047787;28;20655;-80
2023/08/26 07:24:38;;;;;;;3.10;2.22;;;20.50;64.70;22.30;100825.00;;;;5045091;28;20207;-83
2023/08/26 07:27:05;;;;;;;1.75;1.42;;;20.60;64.60;22.30;100834.00;;;;5036843;28;20208;-81
2023/08/26 07:29:32;;;;;;;3.08;1.45;;;20.60;64.50;22.30;100846.00;;;;5044040;28;20270;-82
2023/08/26 07:31:59;;;;;;;3.80;1.92;;;20.70;64.40;22.30;100835.00;;;;5040291;28;20196;-82
2023/08/26 07:34:26;;;;;;;2.50;1.38;;;20.70;64.30;22.30;100843.00;;;;5042870;28;20310;-83
2023/08/26 07:36:54;;;;;;;3.05;1.27;;;20.70;64.00;22.40;100851.00;;;;5045525;28;20190;-82
2023/08/26 07:39:24;;;;;;;2.58;1.80;;;20.80;64.00;22.40;100855.00;;;;5046891;28;20223;-81
2023/08/26 07:41:52;;;;;;;2.50;1.27;;;20.80;63.80;22.30;100859.00;;;;5046336;28;20629;-80
2023/08/26 07:44:20;;;;;;;4.25;1.20;;;20.80;63.60;22.40;100847.00;;;;5048998;28;20692;-81
2023/08/26 07:46:49;;;;;;;2.42;1.23;;;20.80;63.60;22.40;100843.00;;;;5036362;28;20203;-81
2023/08/26 07:49:16;;;;;;;3.40;1.60;;;20.80;63.60;22.40;100839.00;;;;5047422;28;20210;-80
2023/08/26 07:51:43;;;;;;;2.13;1.58;;;20.80;63.70;22.40;100865.00;;;;5030124;28;20213;-81
2023/08/26 07:54:10;;;;;;;3.78;1.20;;;20.80;63.90;22.50;100857.00;;;;5028353;28;20210;-80
2023/08/26 07:56:37;;;;;;;2.75;1.60;;;20.90;64.00;22.50;100862.00;;;;5028781;28;20224;-80
2023/08/26 07:59:06;;;;;;;4.43;1.90;;;20.90;64.10;22.60;100866.00;;;;5028128;28;20231;-81
2023/08/26 08:01:33;;;;;;;4.63;1.75;;;21.00;64.20;22.70;100862.00;;;;5040204;28;20204;-82
2023/08/26 08:04:00;;;;;;;2.05;1.70;;;21.00;64.20;22.70;100873.00;;;;5045947;28;20191;-81
2023/08/26 08:06:27;;;;;;;2.10;1.90;;;21.10;64.00;22.80;100868.00;;;;5039583;28;20207;-80
2023/08/26 08:08:54;;;;;;;3.47;2.10;;;21.10;63.80;22.80;100862.00;;;;5045825;28;20203;-81
2023/08/26 08:11:21;;;;;;;6.53;2.22;;;21.20;63.50;22.80;100864.00;;;;5037736;28;20204;-81
2023/08/26 08:13:48;;;;;;;4.25;2.15;;;21.20;63.30;22.80;100861.00;;;;5028464;28;20243;-79
2023/08/26 08:16:16;;;;;;;2.65;2.05;;;21.20;63.30;22.80;100862.00;;;;5030209;28;20229;-80
2023/08/26 08:18:43;;;;;;;5.63;2.00;;;21.30;63.30;22.90;100864.00;;;;5047171;28;20223;-79
2023/08/26 08:21:10;;;;;;;2.17;1.83;;;21.30;63.40;22.90;100860.00;;;;5046913;28;20666;-79
2023/08/26 08:23:38;;;;;;;3.30;1.77;;;21.30;63.50;22.90;100864.00;;;;5048230;28;20662;-79
2023/08/26 08:26:05;;;;;;;2.50;1.65;;;21.30;63.30;23.00;100858.00;;;;5046991;28;20206;-80
2023/08/26 08:28:32;;;;;;;2.20;1.65;;;21.40;63.40;23.00;100859.00;;;;5048565;28;20195;-80
2023/08/26 08:30:59;;;;;;;4.75;1.88;;;21.40;63.40;23.10;100858.00;;;;5047674;28;20215;-80
2023/08/26 08:33:27;;;;;;;2.55;1.67;;;21.50;63.40;23.10;100857.00;;;;5043385;28;20224;-81
2023/08/26 08:35:54;;;;;;;2.33;1.90;;;21.50;63.20;23.10;100860.00;;;;5029013;28;20204;-81
2023/08/26 08:38:21;;;;;;;5.95;2.30;;;21.60;63.20;23.10;100871.00;;;;5041145;28;20219;-81
2023/08/26 08:40:48;;;;;;;3.05;2.50;;;21.60;63.00;23.10;100862.00;;;;5045664;28;20211;-80
2023/08/26 08:43:20;;;;;;;2.78;1.90;;;21.60;62.90;23.10;100863.00;;;;5034206;28;20200;-80
2023/08/26 08:45:50;;;;;;;2.50;2.30;;;21.60;62.80;23.20;100873.00;;;;5036224;28;20583;-80
2023/08/26 08:48:21;;;;;;;3.45;2.15;;;21.60;62.90;23.20;100864.00;;;;5047736;28;20203;-80
2023/08/26 08:50:50;;;;;;;4.63;2.63;;;21.70;63.00;23.30;100857.00;;;;5048387;28;20203;-81
2023/08/26 08:53:29;;;;;;;3.10;2.80;;;21.70;63.00;23.30;100861.00;;;;5045723;28;20586;-80
2023/08/26 08:55:57;;;;;;;3.83;2.85;;;21.70;62.80;23.40;100850.00;;;;5047452;28;20220;-81
2023/08/26 08:58:25;;;;;;;4.45;3.28;;;21.80;62.80;23.50;100846.00;;;;5047740;28;20223;-80
2023/08/26 09:00:53;;;;;;;2.60;2.40;;;21.90;62.80;23.50;100853.00;;;;5047402;28;20203;-80
2023/08/26 09:03:23;;;;;;;4.18;3.03;;;21.90;63.00;23.60;100850.00;;;;5033556;28;20215;-80
2023/08/26 09:05:52;;;;;;;3.25;2.95;;;22.00;63.20;23.80;100851.00;;;;5027505;28;20786;-79
2023/08/26 09:08:22;;;;;;;3.50;3.15;;;22.10;63.30;23.90;100845.00;;;;5040976;28;20207;-79
2023/08/26 09:10:50;;;;;;;3.63;3.33;;;22.20;63.40;24.00;100849.00;;;;5039273;28;20258;-80
2023/08/26 09:13:17;;;;;;;3.22;2.97;;;22.40;63.20;24.10;100859.00;;;;5027309;28;20948;-81
2023/08/26 09:15:44;;;;;;;4.70;3.80;;;22.50;62.90;24.20;100853.00;;;;5026846;28;20226;-81
2023/08/26 09:18:12;;;;;;;4.00;3.10;;;22.60;62.40;24.30;100863.00;;;;5026988;28;20247;-79
2023/08/26 09:20:40;;;;;;;3.35;3.05;;;22.70;61.90;24.30;100861.00;;;;5027804;28;20660;-80
2023/08/26 09:23:08;;;;;;;3.47;3.17;;;22.70;61.20;24.40;100869.00;;;;5027840;28;20205;-80
2023/08/26 09:25:36;;;;;;;4.68;3.58;;;22.80;61.00;24.50;100871.00;;;;5028312;28;20196;-81
2023/08/26 09:28:04;;;;;;;3.30;3.00;;;22.90;61.40;24.60;100873.00;;;;5027518;28;20251;-81
2023/08/26 09:30:31;;;;;;;4.13;2.90;;;23.00;61.30;24.60;100872.00;;;;5027653;28;20742;-78
2023/08/26 09:32:59;;;;;;;2.50;2.30;;;23.00;60.50;24.60;100877.00;;;;5027366;28;20204;-80
2023/08/26 09:35:26;;;;;;;3.20;2.85;;;23.10;60.20;24.60;100880.00;;;;5027778;28;20212;-77
2023/08/26 09:37:59;;;;;;;3.35;3.05;;;23.10;60.10;24.60;100880.00;;;;5038135;28;20211;-76
2023/08/26 09:40:27;;;;;;;3.00;2.75;;;23.20;59.80;24.70;100891.00;;;;5045595;28;20206;-78
2023/08/26 09:42:54;;;;;;;2.50;2.30;;;23.20;59.80;24.70;100879.00;;;;5031384;28;20200;-77
2023/08/26 09:45:22;;;;;;;2.83;2.58;;;23.20;59.90;24.80;100880.00;;;;5041449;28;20201;-78
2023/08/26 09:47:51;;;;;;;2.80;2.20;;;23.20;60.10;24.90;100883.00;;;;5036825;28;20204;-77
2023/08/26 09:50:30;;;;;;;2.00;1.80;;;23.30;60.10;24.80;100877.00;;;;5036892;28;20223;-77
2023/08/26 09:52:57;;;;;;;3.13;2.83;;;23.30;60.10;24.90;100887.00;;;;5044660;28;20265;-79
2023/08/26 09:55:24;;;;;;;2.65;2.30;;;23.40;59.90;25.00;100895.00;;;;5046385;28;20196;-78
2023/08/26 09:57:53;;;;;;;4.15;2.63;;;23.40;59.70;25.00;100881.00;;;;5044736;28;20743;-79
2023/08/26 10:00:21;;;;;;;2.58;2.05;;;23.40;59.70;25.00;100891.00;;;;5046997;28;20203;-77
2023/08/26 10:02:51;;;;;;;2.67;2.42;;;23.40;59.70;25.10;100888.00;;;;5047687;28;20207;-77
2023/08/26 10:05:21;;;;;;;2.67;2.47;;;23.50;59.60;25.20;100888.00;;;;5046564;28;20199;-77
2023/08/26 10:07:51;;;;;;;2.08;1.88;;;23.50;59.90;25.30;100891.00;;;;5046958;28;20274;-77
2023/08/26 10:10:32;;;;;;;3.58;2.97;;;23.60;60.20;25.30;100882.00;;;;5041380;28;20200;-78
2023/08/26 10:13:05;;;;;;;2.92;2.05;;;23.70;59.40;25.40;100894.00;;;;5048700;28;20199;-78
2023/08/26 10:15:35;;;;;;;2.20;1.88;;;23.80;59.50;25.50;100891.00;;;;5051773;28;20239;-77
2023/08/26 10:18:09;;;;;;;5.15;2.58;;;23.90;59.70;25.60;100895.00;;;;5044612;28;20203;-78
2023/08/26 10:20:36;;;;;;;2.92;2.45;;;24.10;59.30;25.70;100896.00;;;;5050631;28;20584;-78
2023/08/26 10:23:04;;;;;;;2.50;2.30;;;24.10;59.50;25.80;100902.00;;;;5050495;28;20191;-77
2023/08/26 10:25:33;;;;;;;3.03;2.67;;;24.20;59.30;25.90;100893.00;;;;5047226;28;20204;-78
2023/08/26 10:28:04;;;;;;;3.80;2.30;;;24.40;59.00;26.00;100884.00;;;;5048018;28;20204;-80
2023/08/26 10:30:31;;;;;;;2.67;2.00;;;24.50;58.80;26.10;100885.00;;;;5051108;28;20717;-79
2023/08/26 10:33:04;;;;;;;2.65;2.35;;;24.50;58.80;26.10;100876.00;;;;5049711;28;20230;-78
2023/08/26 10:35:32;;;;;;;2.58;2.28;;;24.60;58.50;26.20;100882.00;;;;5047885;28;20694;-78
2023/08/26 10:38:13;;;;;;;1.73;1.63;;;24.70;58.50;26.10;100885.00;;;;5033381;28;20199;-79
2023/08/26 10:40:41;;;;;;;1.85;1.73;;;24.70;57.60;26.20;100878.00;;;;5045488;28;20207;-79
2023/08/26 10:43:13;;;;;;;3.20;2.00;;;24.70;57.70;26.10;100880.00;;;;5043853;28;20197;-78
2023/08/26 10:45:47;;;;;;;2.72;1.90;;;24.70;58.00;26.00;100881.00;;;;5045301;28;20203;-78
2023/08/26 10:48:14;;;;;;;2.83;1.48;;;24.70;57.10;26.10;100885.00;;;;5047290;28;20198;-78
2023/08/26 10:50:43;;;;;;;2.15;1.92;;;24.70;57.50;26.20;100872.00;;;;5046806;28;20199;-79